Time;durP1;ratioP1;P1;durP2;ratioP2;P2;SDS_P1;SDS_P2;PMS_P1;PMS_P2;Temp;Humidity;BMP_temperature;BMP_pressure;BME280_temperature;BME280_humidity;BME280_pressure;Samples;Min_cycle;Max_cycle;Signal;HPM_P1;HPM_P2
2023/01/05 00:00:50;;;;;;;0.10;0.10;;;;;;;;;;4937152;29;20605;-67
2023/01/05 00:03:16;;;;;;;0.30;0.30;;;;;;;;;;4946295;29;20401;-67
2023/01/05 00:05:44;;;;;;;0.10;0.10;;;;;;;;;;4937056;29;20513;-67
2023/01/05 00:08:10;;;;;;;0.10;0.10;;;;;;;;;;4945811;29;20215;-67
2023/01/05 00:24:28;;;;;;;0.10;0.10;;;;;;;;;;4947380;29;20529;-68
2023/01/05 00:26:54;;;;;;;0.17;0.17;;;;;;;;;;4935462;29;20494;-68
2023/01/05 00:29:21;;;;;;;0.10;0.10;;;;;;;;;;4946399;29;20259;-68
2023/01/05 00:31:47;;;;;;;7.20;0.50;;;;;;;;;;4935725;29;20251;-68
2023/01/05 00:34:13;;;;;;;0.30;0.30;;;;;;;;;;4946370;29;20208;-68
2023/01/05 00:36:40;;;;;;;0.17;0.17;;;;;;;;;;4935957;29;20306;-67
2023/01/05 00:39:08;;;;;;;0.10;0.10;;;;;;;;;;4946248;29;20204;-67
2023/01/05 00:41:34;;;;;;;0.10;0.10;;;;;;;;;;4935971;29;20297;-66
2023/01/05 00:44:00;;;;;;;0.10;0.10;;;;;;;;;;4945814;29;20266;-67
2023/01/05 00:46:27;;;;;;;0.20;0.20;;;;;;;;;;4935850;29;20262;-66
2023/01/05 00:48:53;;;;;;;0.10;0.10;;;;;;;;;;4945858;29;20331;-67
2023/01/05 00:51:19;;;;;;;0.10;0.10;;;;;;;;;;4935804;29;20254;-67
2023/01/05 00:53:47;;;;;;;0.30;0.30;;;;;;;;;;4946012;29;20208;-67
2023/01/05 00:56:15;;;;;;;0.10;0.10;;;;;;;;;;4936037;29;20548;-67
2023/01/05 00:58:41;;;;;;;0.20;0.20;;;;;;;;;;4945663;29;20235;-67
2023/01/05 01:01:11;;;;;;;0.13;0.13;;;;;;;;;;4936081;29;20240;-67
2023/01/05 01:03:37;;;;;;;1.80;0.30;;;;;;;;;;4945586;29;20275;-66
2023/01/05 01:06:04;;;;;;;0.10;0.10;;;;;;;;;;4936081;29;20244;-66
2023/01/05 01:08:30;;;;;;;0.10;0.10;;;;;;;;;;4945658;29;20208;-69
2023/01/05 01:10:57;;;;;;;5.50;1.07;;;;;;;;;;4936155;29;20264;-66
2023/01/05 01:13:24;;;;;;;0.17;0.17;;;;;;;;;;4945607;29;20280;-67
2023/01/05 01:15:51;;;;;;;0.10;0.10;;;;;;;;;;4936145;29;20496;-67
2023/01/05 01:18:17;;;;;;;1.23;1.23;;;;;;;;;;4945584;29;20444;-67
2023/01/05 01:20:44;;;;;;;0.10;0.10;;;;;;;;;;4936045;29;20247;-66
2023/01/05 01:23:10;;;;;;;0.10;0.10;;;;;;;;;;4945161;29;20235;-67
2023/01/05 01:25:37;;;;;;;0.17;0.17;;;;;;;;;;4936246;29;20299;-67
2023/01/05 01:28:04;;;;;;;0.50;0.50;;;;;;;;;;4945081;29;20196;-67
2023/01/05 01:30:31;;;;;;;0.10;0.10;;;;;;;;;;4935777;29;20311;-67
2023/01/05 01:32:58;;;;;;;0.10;0.10;;;;;;;;;;4945028;29;20267;-67
2023/01/05 01:35:24;;;;;;;0.20;0.20;;;;;;;;;;4935806;29;20215;-68
2023/01/05 01:37:50;;;;;;;0.10;0.10;;;;;;;;;;4944875;29;20227;-67
2023/01/05 01:40:17;;;;;;;0.10;0.10;;;;;;;;;;4939532;29;20231;-68
2023/01/05 01:42:43;;;;;;;0.20;0.20;;;;;;;;;;4948549;29;20394;-67
2023/01/05 01:45:15;;;;;;;6.33;2.00;;;;;;;;;;4939481;29;20399;-67
2023/01/05 01:47:45;;;;;;;0.17;0.17;;;;;;;;;;4948367;29;20264;-67
2023/01/05 01:50:15;;;;;;;1.07;1.07;;;;;;;;;;4939072;29;20266;-68
2023/01/05 01:52:42;;;;;;;0.10;0.10;;;;;;;;;;4948399;29;20196;-69
2023/01/05 01:55:09;;;;;;;0.10;0.10;;;;;;;;;;4939658;29;20284;-68
2023/01/05 01:57:36;;;;;;;0.10;0.10;;;;;;;;;;4948146;29;20207;-68
2023/01/05 02:00:04;;;;;;;0.10;0.10;;;;;;;;;;4949114;29;20215;-68
2023/01/05 02:02:30;;;;;;;0.10;0.10;;;;;;;;;;4938190;29;20586;-68
2023/01/05 02:05:00;;;;;;;0.27;0.27;;;;;;;;;;4949097;29;20456;-68
2023/01/05 02:07:29;;;;;;;0.10;0.10;;;;;;;;;;4938033;29;20278;-68
2023/01/05 02:09:55;;;;;;;0.10;0.10;;;;;;;;;;4948953;29;20462;-68
2023/01/05 02:12:31;;;;;;;0.43;0.43;;;;;;;;;;4937941;29;20258;-67
2023/01/05 02:15:00;;;;;;;2.70;0.40;;;;;;;;;;4948774;29;20214;-67
2023/01/05 02:17:33;;;;;;;0.30;0.30;;;;;;;;;;4937835;29;20251;-68
2023/01/05 02:20:14;;;;;;;0.10;0.10;;;;;;;;;;4948896;29;20421;-67
2023/01/05 02:23:14;;;;;;;0.10;0.10;;;;;;;;;;4944835;29;20283;-68
2023/01/05 02:25:50;;;;;;;0.20;0.20;;;;;;;;;;4938780;29;20319;-67
2023/01/05 02:28:24;;;;;;;0.10;0.10;;;;;;;;;;4948023;29;20442;-67
2023/01/05 02:31:02;;;;;;;0.13;0.13;;;;;;;;;;4938256;29;20243;-67
2023/01/05 02:33:32;;;;;;;0.83;0.83;;;;;;;;;;4947730;29;20196;-67
2023/01/05 02:36:03;;;;;;;0.10;0.10;;;;;;;;;;4938444;29;20266;-68
2023/01/05 02:38:33;;;;;;;0.10;0.10;;;;;;;;;;4947609;29;20248;-68
2023/01/05 02:41:03;;;;;;;0.10;0.10;;;;;;;;;;4938300;29;20307;-68
2023/01/05 02:43:29;;;;;;;0.10;0.10;;;;;;;;;;4947784;29;20211;-68
2023/01/05 02:45:55;;;;;;;0.10;0.10;;;;;;;;;;4938167;29;20254;-68
2023/01/05 02:48:24;;;;;;;0.10;0.10;;;;;;;;;;4947320;29;20275;-67
2023/01/05 02:50:53;;;;;;;0.10;0.10;;;;;;;;;;4937649;29;20244;-67
2023/01/05 02:53:20;;;;;;;0.10;0.10;;;;;;;;;;4947184;29;20279;-68
2023/01/05 02:55:49;;;;;;;0.10;0.10;;;;;;;;;;4938135;29;20312;-68
2023/01/05 02:58:17;;;;;;;0.10;0.10;;;;;;;;;;4947367;29;20273;-67
2023/01/05 03:00:46;;;;;;;0.17;0.17;;;;;;;;;;4937990;29;20251;-68
2023/01/05 03:03:15;;;;;;;0.10;0.10;;;;;;;;;;4947159;29;20453;-67
2023/01/05 03:05:45;;;;;;;0.10;0.10;;;;;;;;;;4937537;29;20275;-68
2023/01/05 03:08:21;;;;;;;0.10;0.10;;;;;;;;;;4946865;29;20275;-68
2023/01/05 03:13:43;;;;;;;0.20;0.20;;;;;;;;;;4947043;29;20187;-67
2023/01/05 03:16:10;;;;;;;0.10;0.10;;;;;;;;;;4937457;29;20287;-67
2023/01/05 03:19:34;;;;;;;0.20;0.20;;;;;;;;;;4946864;29;20243;-67
2023/01/05 03:21:26;;;;;;;0.93;0.93;;;;;;;;;;4936907;29;20236;-67
2023/01/05 03:37:40;;;;;;;0.10;0.10;;;;;;;;;;4936216;29;20214;-67
2023/01/05 03:40:09;;;;;;;0.10;0.10;;;;;;;;;;4945004;29;20443;-67
2023/01/05 03:42:36;;;;;;;0.10;0.10;;;;;;;;;;4945895;29;20291;-67
2023/01/05 03:45:03;;;;;;;0.10;0.10;;;;;;;;;;4947156;29;20247;-67
2023/01/05 03:47:29;;;;;;;0.17;0.17;;;;;;;;;;4936274;29;20316;-68
2023/01/05 03:49:55;;;;;;;0.10;0.10;;;;;;;;;;4946915;29;20231;-67
2023/01/05 03:52:22;;;;;;;0.10;0.10;;;;;;;;;;4936107;29;20263;-67
2023/01/05 03:54:49;;;;;;;0.10;0.10;;;;;;;;;;4946635;29;20251;-67
2023/01/05 03:57:16;;;;;;;0.13;0.13;;;;;;;;;;4935967;29;20284;-67
2023/01/05 03:59:42;;;;;;;0.10;0.10;;;;;;;;;;4947000;29;20499;-68
2023/01/05 04:02:08;;;;;;;1.47;1.47;;;;;;;;;;4935261;29;20276;-67
2023/01/05 04:04:35;;;;;;;0.10;0.10;;;;;;;;;;4946851;29;20455;-67
2023/01/05 04:07:01;;;;;;;0.10;0.10;;;;;;;;;;4936014;29;20243;-67
2023/01/05 04:09:27;;;;;;;0.10;0.10;;;;;;;;;;4946671;29;20274;-67
2023/01/05 04:11:55;;;;;;;0.10;0.10;;;;;;;;;;4935877;29;20244;-67
2023/01/05 04:14:21;;;;;;;0.10;0.10;;;;;;;;;;4946360;29;20285;-68
2023/01/05 04:16:48;;;;;;;0.10;0.10;;;;;;;;;;4935951;29;20264;-68
2023/01/05 04:19:14;;;;;;;0.30;0.30;;;;;;;;;;4946485;29;20522;-68
2023/01/05 04:21:41;;;;;;;0.10;0.10;;;;;;;;;;4935984;29;20256;-68
2023/01/05 04:24:09;;;;;;;0.10;0.10;;;;;;;;;;4946337;29;20215;-68
2023/01/05 04:26:36;;;;;;;0.10;0.10;;;;;;;;;;4935934;29;20244;-67
2023/01/05 04:29:04;;;;;;;0.10;0.10;;;;;;;;;;4945969;29;20208;-68
2023/01/05 04:31:30;;;;;;;0.20;0.20;;;;;;;;;;4935706;29;20248;-67
2023/01/05 04:33:57;;;;;;;0.17;0.17;;;;;;;;;;4946126;29;20275;-68
2023/01/05 04:36:23;;;;;;;0.10;0.10;;;;;;;;;;4935940;29;20268;-67
2023/01/05 04:38:49;;;;;;;0.10;0.10;;;;;;;;;;4945722;29;20204;-68
2023/01/05 04:41:16;;;;;;;0.10;0.10;;;;;;;;;;4936055;29;20315;-67
2023/01/05 04:43:42;;;;;;;0.10;0.10;;;;;;;;;;4945660;29;20208;-68
2023/01/05 04:46:10;;;;;;;0.10;0.10;;;;;;;;;;4936000;29;20255;-67
2023/01/05 04:48:36;;;;;;;0.30;0.30;;;;;;;;;;4945890;29;20454;-67
2023/01/05 04:51:03;;;;;;;0.10;0.10;;;;;;;;;;4936055;29;20266;-67
2023/01/05 04:53:29;;;;;;;0.10;0.10;;;;;;;;;;4945444;29;20278;-67
2023/01/05 04:55:55;;;;;;;0.10;0.10;;;;;;;;;;4936084;29;20270;-68
2023/01/05 04:58:22;;;;;;;0.10;0.10;;;;;;;;;;4945513;29;20458;-68
2023/01/05 05:00:48;;;;;;;0.10;0.10;;;;;;;;;;4936107;29;20251;-68
2023/01/05 05:03:16;;;;;;;0.10;0.10;;;;;;;;;;4945387;29;20275;-67
2023/01/05 05:05:42;;;;;;;0.10;0.10;;;;;;;;;;4936010;29;20314;-68
2023/01/05 05:08:09;;;;;;;0.10;0.10;;;;;;;;;;4945119;29;20316;-67
2023/01/05 05:10:35;;;;;;;0.30;0.30;;;;;;;;;;4936147;29;20418;-67
2023/01/05 05:13:02;;;;;;;0.10;0.10;;;;;;;;;;4947110;29;20242;-67
2023/01/05 05:15:28;;;;;;;0.10;0.10;;;;;;;;;;4940100;29;20322;-67
2023/01/05 05:17:55;;;;;;;0.10;0.10;;;;;;;;;;4949091;29;20231;-67
2023/01/05 05:20:22;;;;;;;0.10;0.10;;;;;;;;;;4940069;29;20463;-67
2023/01/05 05:22:49;;;;;;;0.20;0.20;;;;;;;;;;4949086;29;20255;-67
2023/01/05 05:25:15;;;;;;;0.10;0.10;;;;;;;;;;4939963;29;20223;-68
2023/01/05 05:27:41;;;;;;;0.10;0.10;;;;;;;;;;4948803;29;20203;-67
2023/01/05 05:30:08;;;;;;;0.10;0.10;;;;;;;;;;4943738;29;20240;-67
2023/01/05 05:32:35;;;;;;;0.10;0.10;;;;;;;;;;4948626;29;20226;-68
2023/01/05 05:35:01;;;;;;;0.10;0.10;;;;;;;;;;4949420;29;20211;-67
2023/01/05 05:37:29;;;;;;;0.60;0.60;;;;;;;;;;4938482;29;20256;-67
2023/01/05 05:39:55;;;;;;;0.10;0.10;;;;;;;;;;4949600;29;20395;-68
2023/01/05 05:42:21;;;;;;;0.10;0.10;;;;;;;;;;4938494;29;20508;-67
2023/01/05 05:44:48;;;;;;;0.20;0.20;;;;;;;;;;4949496;29;20242;-67
2023/01/05 05:47:14;;;;;;;0.10;0.10;;;;;;;;;;4938425;29;20523;-67
2023/01/05 05:49:40;;;;;;;2.37;2.17;;;;;;;;;;4948884;29;20243;-67
2023/01/05 05:52:07;;;;;;;0.10;0.10;;;;;;;;;;4938473;29;20503;-67
2023/01/05 05:54:35;;;;;;;0.30;0.23;;;;;;;;;;4949239;29;20208;-67
2023/01/05 05:57:01;;;;;;;0.20;0.20;;;;;;;;;;4938366;29;20247;-67
2023/01/05 05:59:28;;;;;;;0.23;0.23;;;;;;;;;;4948763;29;20240;-68
2023/01/05 06:01:54;;;;;;;0.10;0.10;;;;;;;;;;4938295;29;20266;-67
2023/01/05 06:04:21;;;;;;;0.10;0.10;;;;;;;;;;4948959;29;20499;-67
2023/01/05 06:06:47;;;;;;;1.90;1.53;;;;;;;;;;4938308;29;20574;-67
2023/01/05 06:09:13;;;;;;;0.20;0.20;;;;;;;;;;4948498;29;20220;-68
2023/01/05 06:11:41;;;;;;;0.10;0.10;;;;;;;;;;4938137;29;20262;-68
2023/01/05 06:14:07;;;;;;;0.30;0.30;;;;;;;;;;4948263;29;20240;-68
2023/01/05 06:16:34;;;;;;;0.20;0.20;;;;;;;;;;4938198;29;20250;-68
2023/01/05 06:19:00;;;;;;;0.20;0.20;;;;;;;;;;4948200;29;20200;-68
2023/01/05 06:21:27;;;;;;;0.20;0.20;;;;;;;;;;4938058;29;20279;-68
2023/01/05 06:23:53;;;;;;;0.10;0.10;;;;;;;;;;4947336;29;20250;-68
2023/01/05 06:26:20;;;;;;;0.10;0.10;;;;;;;;;;4938079;29;20303;-68
2023/01/05 06:28:47;;;;;;;0.20;0.20;;;;;;;;;;4947916;29;20282;-68
2023/01/05 06:31:14;;;;;;;0.13;0.13;;;;;;;;;;4937739;29;20326;-68
2023/01/05 06:33:40;;;;;;;0.20;0.20;;;;;;;;;;4947780;29;20218;-68
2023/01/05 06:36:07;;;;;;;0.10;0.10;;;;;;;;;;4938189;29;20274;-68
2023/01/05 06:38:33;;;;;;;0.20;0.20;;;;;;;;;;4947952;29;20219;-67
2023/01/05 06:40:59;;;;;;;0.20;0.20;;;;;;;;;;4938201;29;20243;-68
2023/01/05 06:43:26;;;;;;;0.20;0.20;;;;;;;;;;4947802;29;20208;-68
2023/01/05 06:45:53;;;;;;;0.20;0.20;;;;;;;;;;4938219;29;20251;-68
2023/01/05 06:48:20;;;;;;;0.10;0.10;;;;;;;;;;4947298;29;20210;-68
2023/01/05 06:50:46;;;;;;;0.10;0.10;;;;;;;;;;4938091;29;20357;-68
2023/01/05 06:53:13;;;;;;;0.10;0.10;;;;;;;;;;4947400;29;20209;-68
2023/01/05 06:55:39;;;;;;;1.37;1.17;;;;;;;;;;4938099;29;20247;-68
2023/01/05 06:58:05;;;;;;;4.33;1.13;;;;;;;;;;4946982;29;20212;-67
2023/01/05 07:00:32;;;;;;;0.10;0.10;;;;;;;;;;4938216;29;20266;-68
2023/01/05 07:03:00;;;;;;;0.53;0.53;;;;;;;;;;4946863;29;20208;-68
2023/01/05 07:05:26;;;;;;;0.30;0.30;;;;;;;;;;4938234;29;20384;-67
2023/01/05 07:07:52;;;;;;;0.10;0.10;;;;;;;;;;4946751;29;20235;-67
2023/01/05 07:10:19;;;;;;;0.10;0.10;;;;;;;;;;4938046;29;20276;-68
2023/01/05 07:12:45;;;;;;;0.10;0.10;;;;;;;;;;4946620;29;20268;-67
2023/01/05 07:15:11;;;;;;;0.50;0.50;;;;;;;;;;4938109;29;20214;-67
2023/01/05 07:17:38;;;;;;;0.20;0.20;;;;;;;;;;4946752;29;20196;-68
2023/01/05 07:20:06;;;;;;;0.10;0.10;;;;;;;;;;4947534;29;20215;-68
2023/01/05 07:22:33;;;;;;;0.20;0.20;;;;;;;;;;4936472;29;20220;-67
2023/01/05 07:24:59;;;;;;;0.20;0.20;;;;;;;;;;4947557;29;20453;-67
2023/01/05 07:27:26;;;;;;;0.10;0.10;;;;;;;;;;4936515;29;20248;-67
2023/01/05 07:29:52;;;;;;;0.10;0.10;;;;;;;;;;4947314;29;20267;-66
2023/01/05 07:32:18;;;;;;;0.10;0.10;;;;;;;;;;4936625;29;20464;-67
2023/01/05 07:34:45;;;;;;;0.20;0.20;;;;;;;;;;4947480;29;20441;-67
2023/01/05 07:37:13;;;;;;;0.13;0.13;;;;;;;;;;4936652;29;20270;-67
2023/01/05 07:39:39;;;;;;;0.20;0.20;;;;;;;;;;4947028;29;20220;-67
2023/01/05 07:42:05;;;;;;;0.20;0.20;;;;;;;;;;4936405;29;20327;-67
2023/01/05 07:44:32;;;;;;;0.20;0.20;;;;;;;;;;4947301;29;20397;-67
2023/01/05 07:46:59;;;;;;;0.20;0.20;;;;;;;;;;4936319;29;20248;-68
2023/01/05 07:49:25;;;;;;;0.20;0.20;;;;;;;;;;4946957;29;20271;-68
2023/01/05 07:51:52;;;;;;;0.43;0.43;;;;;;;;;;4936347;29;20252;-67
2023/01/05 07:54:20;;;;;;;0.10;0.10;;;;;;;;;;4946502;29;20417;-68
2023/01/05 07:56:46;;;;;;;0.70;0.70;;;;;;;;;;4936415;29;20301;-67
2023/01/05 07:59:13;;;;;;;0.20;0.20;;;;;;;;;;4946592;29;20215;-67
2023/01/05 08:01:39;;;;;;;0.40;0.40;;;;;;;;;;4936362;29;20523;-67
2023/01/05 08:04:06;;;;;;;0.10;0.10;;;;;;;;;;4946709;29;20452;-67
2023/01/05 08:06:33;;;;;;;2.73;2.53;;;;;;;;;;4936169;29;20290;-67
2023/01/05 08:10:27;;;;;;;0.10;0.10;;;;;;;;;;4946287;29;20244;-67
2023/01/05 08:11:47;;;;;;;0.10;0.10;;;;;;;;;;4935977;29;20303;-66
2023/01/05 08:14:14;;;;;;;3.40;1.30;;;;;;;;;;4946481;29;20222;-68
2023/01/05 08:16:41;;;;;;;0.20;0.20;;;;;;;;;;4935982;29;20282;-72
2023/01/05 08:19:08;;;;;;;0.17;0.17;;;;;;;;;;4946229;29;20442;-69
2023/01/05 08:21:35;;;;;;;0.10;0.10;;;;;;;;;;4935781;29;20311;-71
2023/01/05 08:24:01;;;;;;;0.43;0.40;;;;;;;;;;4946018;29;20208;-68
2023/01/05 08:26:27;;;;;;;0.10;0.10;;;;;;;;;;4935990;29;20321;-67
2023/01/05 08:28:55;;;;;;;2.00;0.50;;;;;;;;;;4946197;29;20281;-68
2023/01/05 08:31:23;;;;;;;0.50;0.50;;;;;;;;;;4935737;29;20351;-68
2023/01/05 08:33:50;;;;;;;0.20;0.20;;;;;;;;;;4946265;29;20216;-68
2023/01/05 08:36:18;;;;;;;0.13;0.13;;;;;;;;;;4935868;29;20280;-67
2023/01/05 08:38:47;;;;;;;0.20;0.20;;;;;;;;;;4946098;29;20212;-68
2023/01/05 08:41:15;;;;;;;0.10;0.10;;;;;;;;;;4935846;29;20246;-66
2023/01/05 08:43:41;;;;;;;0.10;0.10;;;;;;;;;;4945979;29;20279;-68
2023/01/05 08:46:09;;;;;;;0.10;0.10;;;;;;;;;;4935833;29;20547;-68
2023/01/05 08:48:35;;;;;;;0.43;0.40;;;;;;;;;;4945467;29;20274;-68
2023/01/05 08:51:05;;;;;;;0.20;0.20;;;;;;;;;;4935741;29;20314;-69
2023/01/05 08:53:31;;;;;;;0.87;0.53;;;;;;;;;;4945756;29;20211;-70
2023/01/05 08:55:57;;;;;;;0.27;0.27;;;;;;;;;;4936047;29;20286;-68
2023/01/05 08:58:24;;;;;;;0.30;0.30;;;;;;;;;;4945718;29;20235;-68
2023/01/05 09:00:52;;;;;;;0.20;0.20;;;;;;;;;;4936226;29;20258;-68
2023/01/05 09:03:19;;;;;;;0.20;0.20;;;;;;;;;;4945486;29;20212;-68
2023/01/05 09:05:46;;;;;;;1.00;0.40;;;;;;;;;;4936170;29;20514;-68
2023/01/05 09:08:12;;;;;;;0.27;0.27;;;;;;;;;;4945090;29;20242;-68
2023/01/05 09:10:39;;;;;;;0.20;0.20;;;;;;;;;;4935842;29;20240;-68
2023/01/05 09:13:05;;;;;;;0.23;0.23;;;;;;;;;;4945326;29;20251;-69
2023/01/05 09:15:31;;;;;;;1.90;0.40;;;;;;;;;;4935928;29;20248;-68
2023/01/05 09:17:58;;;;;;;0.20;0.20;;;;;;;;;;4945210;29;20217;-68
2023/01/05 09:20:25;;;;;;;0.20;0.20;;;;;;;;;;4936445;29;20473;-69
2023/01/05 09:22:52;;;;;;;0.40;0.40;;;;;;;;;;4945201;29;20239;-68
2023/01/05 09:25:18;;;;;;;0.10;0.10;;;;;;;;;;4936256;29;20214;-69
2023/01/05 09:27:44;;;;;;;3.80;1.33;;;;;;;;;;4945025;29;20217;-68
2023/01/05 09:30:12;;;;;;;0.87;0.70;;;;;;;;;;4935872;29;20306;-68
2023/01/05 09:32:38;;;;;;;0.20;0.20;;;;;;;;;;4944881;29;20276;-68
2023/01/05 09:35:05;;;;;;;0.20;0.20;;;;;;;;;;4946006;29;20215;-68
2023/01/05 09:37:33;;;;;;;0.47;0.47;;;;;;;;;;4935159;29;20263;-68
2023/01/05 09:39:59;;;;;;;0.17;0.17;;;;;;;;;;4945714;29;20231;-68
2023/01/05 09:42:29;;;;;;;0.10;0.10;;;;;;;;;;4935029;29;20337;-67
2023/01/05 09:44:58;;;;;;;0.20;0.20;;;;;;;;;;4945699;29;20244;-68
2023/01/05 09:47:27;;;;;;;0.20;0.20;;;;;;;;;;4935104;29;20244;-68
2023/01/05 09:49:54;;;;;;;0.17;0.17;;;;;;;;;;4945421;29;20208;-69
2023/01/05 09:52:22;;;;;;;0.10;0.10;;;;;;;;;;4934920;29;20316;-69
2023/01/05 09:54:49;;;;;;;0.10;0.10;;;;;;;;;;4945826;29;20215;-68
2023/01/05 09:57:18;;;;;;;0.20;0.20;;;;;;;;;;4935061;29;20319;-68
2023/01/05 09:59:45;;;;;;;0.10;0.10;;;;;;;;;;4946953;29;20212;-68
2023/01/05 10:02:21;;;;;;;0.20;0.20;;;;;;;;;;4938411;29;20442;-68
2023/01/05 10:04:48;;;;;;;0.10;0.10;;;;;;;;;;4948913;29;20203;-69
2023/01/05 10:07:17;;;;;;;0.10;0.10;;;;;;;;;;4938231;29;20251;-69
2023/01/05 10:09:44;;;;;;;3.47;1.40;;;;;;;;;;4949066;29;20208;-69
2023/01/05 10:15:05;;;;;;;0.10;0.10;;;;;;;;;;4948847;29;20203;-71
2023/01/05 10:17:33;;;;;;;0.10;0.10;;;;;;;;;;4938089;29;20336;-71
2023/01/05 10:19:59;;;;;;;0.13;0.13;;;;;;;;;;4948593;29;20250;-72
2023/01/05 10:22:46;;;;;;;0.10;0.10;;;;;;;;;;4937878;29;20309;-72
2023/01/05 10:25:19;;;;;;;0.10;0.10;;;;;;;;;;4938969;29;20237;-72
2023/01/05 10:27:50;;;;;;;0.10;0.10;;;;;;;;;;4947732;29;20209;-72
2023/01/05 10:30:21;;;;;;;0.33;0.33;;;;;;;;;;4938488;29;20272;-71
2023/01/05 10:32:55;;;;;;;0.10;0.10;;;;;;;;;;4947532;29;20240;-70
2023/01/05 10:35:32;;;;;;;0.10;0.10;;;;;;;;;;4938457;29;20269;-71
2023/01/05 10:38:02;;;;;;;0.10;0.10;;;;;;;;;;4947554;29;20217;-71
2023/01/05 10:40:34;;;;;;;0.10;0.10;;;;;;;;;;4938677;29;20299;-72
2023/01/05 10:43:11;;;;;;;0.10;0.10;;;;;;;;;;4947604;29;20280;-71
2023/01/05 10:45:38;;;;;;;0.10;0.10;;;;;;;;;;4938381;29;20271;-71
2023/01/05 10:48:10;;;;;;;0.10;0.10;;;;;;;;;;4947357;29;20233;-70
2023/01/05 10:50:37;;;;;;;0.10;0.10;;;;;;;;;;4938424;29;20485;-69
2023/01/05 10:53:07;;;;;;;0.20;0.20;;;;;;;;;;4947231;29;20233;-71
2023/01/05 10:55:38;;;;;;;0.10;0.10;;;;;;;;;;4938038;29;20239;-72
2023/01/05 10:58:04;;;;;;;0.10;0.10;;;;;;;;;;4947332;29;20373;-72
2023/01/05 11:00:42;;;;;;;0.40;0.40;;;;;;;;;;4938058;29;20259;-71
2023/01/05 11:03:13;;;;;;;0.10;0.10;;;;;;;;;;4947325;29;20247;-70
2023/01/05 11:05:44;;;;;;;0.10;0.10;;;;;;;;;;4938081;29;20306;-71
2023/01/05 11:08:14;;;;;;;0.10;0.10;;;;;;;;;;4947151;29;20215;-71
2023/01/05 11:10:41;;;;;;;0.10;0.10;;;;;;;;;;4937720;29;20267;-70
2023/01/05 11:13:18;;;;;;;0.10;0.10;;;;;;;;;;4947037;29;20415;-70
2023/01/05 11:15:50;;;;;;;9.40;0.97;;;;;;;;;;4937828;29;20273;-69
2023/01/05 11:18:22;;;;;;;0.57;0.57;;;;;;;;;;4947040;29;20279;-71
2023/01/05 11:21:04;;;;;;;0.13;0.13;;;;;;;;;;4937750;29;20284;-70
2023/01/05 11:23:34;;;;;;;0.10;0.10;;;;;;;;;;4947171;29;20206;-71
2023/01/05 11:26:10;;;;;;;0.10;0.10;;;;;;;;;;4937392;29;20308;-70
2023/01/05 11:28:37;;;;;;;0.10;0.10;;;;;;;;;;4946885;29;20263;-71
2023/01/05 11:31:05;;;;;;;0.10;0.10;;;;;;;;;;4936901;29;20243;-71
2023/01/05 11:33:34;;;;;;;0.20;0.20;;;;;;;;;;4946717;29;20232;-70
2023/01/05 11:36:01;;;;;;;0.10;0.10;;;;;;;;;;4937074;29;20252;-71
2023/01/05 11:38:28;;;;;;;0.10;0.10;;;;;;;;;;4946812;29;20225;-70
2023/01/05 11:40:56;;;;;;;0.10;0.10;;;;;;;;;;4936994;29;20274;-71
2023/01/05 11:43:23;;;;;;;0.10;0.10;;;;;;;;;;4946517;29;20432;-72
2023/01/05 11:45:51;;;;;;;3.80;0.40;;;;;;;;;;4936939;29;20469;-71
2023/01/05 11:48:20;;;;;;;0.13;0.13;;;;;;;;;;4946655;29;20212;-71
2023/01/05 11:50:47;;;;;;;0.10;0.10;;;;;;;;;;4936947;29;20501;-72
2023/01/05 11:53:22;;;;;;;0.10;0.10;;;;;;;;;;4946286;29;20270;-71
2023/01/05 11:55:58;;;;;;;0.10;0.10;;;;;;;;;;4936763;29;20263;-71
2023/01/05 11:58:25;;;;;;;0.20;0.20;;;;;;;;;;4946163;29;20223;-72
2023/01/05 12:01:03;;;;;;;0.10;0.10;;;;;;;;;;4936923;29;20248;-70
2023/01/05 12:03:38;;;;;;;0.10;0.10;;;;;;;;;;4945969;29;20208;-71
2023/01/05 12:06:08;;;;;;;0.10;0.10;;;;;;;;;;4936767;29;20442;-71
2023/01/05 12:08:38;;;;;;;0.10;0.10;;;;;;;;;;4946065;29;20276;-70
2023/01/05 12:11:11;;;;;;;0.33;0.33;;;;;;;;;;4936504;29;20244;-70
2023/01/05 12:13:53;;;;;;;0.10;0.10;;;;;;;;;;4946280;29;20293;-72
2023/01/05 12:16:29;;;;;;;0.10;0.10;;;;;;;;;;4936289;29;20258;-71
2023/01/05 12:19:10;;;;;;;0.10;0.10;;;;;;;;;;4946511;29;20196;-70
2023/01/05 12:21:38;;;;;;;0.10;0.10;;;;;;;;;;4935706;29;20244;-71
2023/01/05 12:24:24;;;;;;;0.10;0.10;;;;;;;;;;4946203;29;20215;-70
2023/01/05 12:26:55;;;;;;;0.17;0.17;;;;;;;;;;4935784;29;20591;-71
2023/01/05 12:29:29;;;;;;;0.10;0.10;;;;;;;;;;4946514;29;20284;-69
2023/01/05 12:32:06;;;;;;;0.10;0.10;;;;;;;;;;4935982;29;20642;-69
2023/01/05 12:34:39;;;;;;;0.10;0.10;;;;;;;;;;4946549;29;20218;-70
2023/01/05 12:37:18;;;;;;;0.10;0.10;;;;;;;;;;4935650;29;20243;-70
2023/01/05 12:40:01;;;;;;;0.10;0.10;;;;;;;;;;4946190;29;20204;-70
2023/01/05 12:42:40;;;;;;;0.10;0.10;;;;;;;;;;4935309;29;20250;-70
2023/01/05 12:45:30;;;;;;;0.10;0.10;;;;;;;;;;4943183;29;20268;-69
2023/01/05 12:47:59;;;;;;;0.10;0.10;;;;;;;;;;4931555;29;20472;-70
2023/01/05 12:50:30;;;;;;;0.10;0.10;;;;;;;;;;4936231;29;20214;-70
2023/01/05 12:53:01;;;;;;;0.10;0.10;;;;;;;;;;4945599;29;20477;-70
2023/01/05 12:55:29;;;;;;;0.10;0.10;;;;;;;;;;4936534;29;20471;-70
2023/01/05 12:57:58;;;;;;;0.10;0.10;;;;;;;;;;4945502;29;20236;-70
2023/01/05 13:00:25;;;;;;;0.20;0.20;;;;;;;;;;4936310;29;20200;-70
2023/01/05 13:02:55;;;;;;;0.10;0.10;;;;;;;;;;4945390;29;20275;-70
2023/01/05 13:05:23;;;;;;;0.10;0.10;;;;;;;;;;4936344;29;20208;-69
2023/01/05 13:07:53;;;;;;;0.10;0.10;;;;;;;;;;4945039;29;20542;-69
2023/01/05 13:10:22;;;;;;;0.10;0.10;;;;;;;;;;4936009;29;20200;-70
2023/01/05 13:12:50;;;;;;;0.10;0.10;;;;;;;;;;4945225;29;20302;-70
2023/01/05 13:15:20;;;;;;;0.10;0.10;;;;;;;;;;4936114;29;20208;-70
2023/01/05 13:17:48;;;;;;;0.10;0.10;;;;;;;;;;4945189;29;20275;-70
2023/01/05 13:20:28;;;;;;;0.10;0.10;;;;;;;;;;4936050;29;20275;-70
2023/01/05 13:22:58;;;;;;;0.10;0.10;;;;;;;;;;4945256;29;20204;-70
2023/01/05 13:25:27;;;;;;;0.10;0.10;;;;;;;;;;4936049;29;20227;-71
2023/01/05 13:27:53;;;;;;;0.10;0.10;;;;;;;;;;4945071;29;20270;-70
2023/01/05 13:30:21;;;;;;;0.13;0.13;;;;;;;;;;4935613;29;20596;-70
2023/01/05 13:32:56;;;;;;;0.10;0.10;;;;;;;;;;4945034;29;20524;-70
2023/01/05 13:35:31;;;;;;;0.10;0.10;;;;;;;;;;4939824;29;20227;-70
2023/01/05 13:38:23;;;;;;;0.20;0.20;;;;;;;;;;4948761;29;20302;-70
2023/01/05 13:40:55;;;;;;;0.10;0.10;;;;;;;;;;4939904;29;20558;-70
2023/01/05 13:43:39;;;;;;;0.10;0.10;;;;;;;;;;4948952;29;20194;-70
2023/01/05 13:46:10;;;;;;;0.10;0.10;;;;;;;;;;4938982;29;20571;-70
2023/01/05 13:48:47;;;;;;;0.10;0.10;;;;;;;;;;4948992;29;20363;-70
2023/01/05 13:51:28;;;;;;;0.10;0.10;;;;;;;;;;4939334;29;20266;-70
2023/01/05 13:53:57;;;;;;;0.10;0.10;;;;;;;;;;4949361;29;20283;-70
2023/01/05 13:56:25;;;;;;;0.10;0.10;;;;;;;;;;4938781;29;20634;-71
2023/01/05 13:58:52;;;;;;;0.13;0.13;;;;;;;;;;4948629;29;20236;-71
2023/01/05 14:01:19;;;;;;;0.10;0.10;;;;;;;;;;4938745;29;20491;-71
2023/01/05 14:03:48;;;;;;;0.10;0.10;;;;;;;;;;4948753;29;20572;-70
2023/01/05 14:06:17;;;;;;;0.10;0.10;;;;;;;;;;4938685;29;20450;-71
2023/01/05 14:08:47;;;;;;;2.77;2.67;;;;;;;;;;4948631;29;20207;-71
2023/01/05 14:11:16;;;;;;;0.10;0.10;;;;;;;;;;4938353;29;20306;-71
2023/01/05 14:13:50;;;;;;;1.13;0.87;;;;;;;;;;4948433;29;20232;-71
2023/01/05 14:16:36;;;;;;;0.10;0.10;;;;;;;;;;4938502;29;20319;-71
2023/01/05 14:19:10;;;;;;;0.10;0.10;;;;;;;;;;4948557;29;20403;-69
2023/01/05 14:21:43;;;;;;;0.20;0.20;;;;;;;;;;4938180;29;20327;-70
2023/01/05 14:24:26;;;;;;;0.10;0.10;;;;;;;;;;4948299;29;20232;-70
2023/01/05 14:27:01;;;;;;;0.37;0.37;;;;;;;;;;4937973;29;20307;-70
2023/01/05 14:29:46;;;;;;;0.10;0.10;;;;;;;;;;4948604;29;20542;-70
2023/01/05 14:32:13;;;;;;;0.10;0.10;;;;;;;;;;4937852;29;20312;-69
2023/01/05 14:34:45;;;;;;;0.10;0.10;;;;;;;;;;4948539;29;20474;-71
2023/01/05 14:37:18;;;;;;;0.10;0.10;;;;;;;;;;4937693;29;20516;-74
2023/01/05 14:39:45;;;;;;;0.10;0.10;;;;;;;;;;4948180;29;20231;-70
2023/01/05 14:42:23;;;;;;;0.10;0.10;;;;;;;;;;4937536;29;20275;-69
2023/01/05 14:44:50;;;;;;;0.10;0.10;;;;;;;;;;4948055;29;20511;-70
2023/01/05 14:47:17;;;;;;;0.10;0.10;;;;;;;;;;4937365;29;20260;-70
2023/01/05 14:49:51;;;;;;;0.10;0.10;;;;;;;;;;4948169;29;20279;-70
2023/01/05 14:52:20;;;;;;;0.10;0.10;;;;;;;;;;4937604;29;20266;-70
2023/01/05 14:55:10;;;;;;;0.10;0.10;;;;;;;;;;4948259;29;20319;-70
2023/01/05 14:57:39;;;;;;;0.10;0.10;;;;;;;;;;4937248;29;20212;-68
2023/01/05 15:00:11;;;;;;;0.13;0.13;;;;;;;;;;4948218;29;20243;-70
2023/01/05 15:02:43;;;;;;;0.10;0.10;;;;;;;;;;4937474;29;20284;-72
2023/01/05 15:05:11;;;;;;;0.10;0.10;;;;;;;;;;4938126;29;20234;-69
2023/01/05 15:07:41;;;;;;;0.20;0.20;;;;;;;;;;4946959;29;20215;-69
2023/01/05 15:10:17;;;;;;;0.10;0.10;;;;;;;;;;4944629;29;20208;-68
2023/01/05 15:12:51;;;;;;;0.10;0.10;;;;;;;;;;4948164;29;20278;-66
2023/01/05 15:15:34;;;;;;;0.10;0.10;;;;;;;;;;4937867;29;20202;-68
2023/01/05 15:18:07;;;;;;;0.10;0.10;;;;;;;;;;4946991;29;20286;-67
2023/01/05 15:20:51;;;;;;;0.17;0.17;;;;;;;;;;4937736;29;20263;-69
2023/01/05 15:23:24;;;;;;;0.20;0.20;;;;;;;;;;4947028;29;20208;-70
2023/01/05 15:26:18;;;;;;;0.20;0.20;;;;;;;;;;4937697;29;20634;-70
2023/01/05 15:28:58;;;;;;;0.20;0.20;;;;;;;;;;4907219;29;20238;-70